Glenwood, Florida
Current Conditions -  °F | °C
As of 1:15 PM on Thursday 27 Nov 2014 (Local Time) from KDED Reporting Station
Clear Clear  
Wind Chill: 64°   Ceiling: Unl
Heat Index: 64°   Visibility: 10mi
Dew Point: 45°   Wind: 14mph
Humidity: 49%   Direction: 300°WNW
Pressure: 30.2"   Gusts: NA
Location:  29.09°N, 81.35°W
Report Text: KDED 271815Z AUTO 30012KT 10SM CLR 18/07 A3020 RMK AO1
Loading
Personal Weather Stations






























Interactive Weather Map New forecast layout! Learn more

10-Day Weather Forecast

Advertisements
Track Severe Weather on mobile